sensor_id;sensor_type;location;lat;lon;timestamp;P1;durP1;ratioP1;P2;durP2;ratioP2
45836;SDS011;31548;51.420;-0.040;2022-08-07T00:00:13;2.20;;;1.23;;
45836;SDS011;31548;51.420;-0.040;2022-08-07T00:02:44;2.40;;;1.10;;
45836;SDS011;31548;51.420;-0.040;2022-08-07T00:05:11;2.47;;;1.50;;
45836;SDS011;31548;51.420;-0.040;2022-08-07T00:07:39;2.70;;;1.35;;
45836;SDS011;31548;51.420;-0.040;2022-08-07T00:10:07;2.13;;;1.45;;
45836;SDS011;31548;51.420;-0.040;2022-08-07T00:12:53;2.58;;;1.42;;
45836;SDS011;31548;51.420;-0.040;2022-08-07T00:15:26;9.15;;;1.27;;
45836;SDS011;31548;51.420;-0.040;2022-08-07T00:18:15;7.38;;;1.50;;
45836;SDS011;31548;51.420;-0.040;2022-08-07T00:20:59;2.35;;;1.25;;
45836;SDS011;31548;51.420;-0.040;2022-08-07T00:23:50;4.65;;;1.50;;
45836;SDS011;31548;51.420;-0.040;2022-08-07T00:26:17;1.90;;;1.20;;
45836;SDS011;31548;51.420;-0.040;2022-08-07T00:29:05;1.95;;;1.20;;
45836;SDS011;31548;51.420;-0.040;2022-08-07T00:31:33;2.40;;;1.27;;
45836;SDS011;31548;51.420;-0.040;2022-08-07T00:34:06;2.30;;;1.50;;
45836;SDS011;31548;51.420;-0.040;2022-08-07T00:36:35;3.25;;;1.38;;
45836;SDS011;31548;51.420;-0.040;2022-08-07T00:39:08;4.28;;;1.33;;
45836;SDS011;31548;51.420;-0.040;2022-08-07T00:44:27;1.75;;;1.05;;
45836;SDS011;31548;51.420;-0.040;2022-08-07T00:46:54;2.35;;;1.33;;
45836;SDS011;31548;51.420;-0.040;2022-08-07T00:49:21;1.83;;;1.00;;
45836;SDS011;31548;51.420;-0.040;2022-08-07T00:52:09;2.45;;;0.90;;
45836;SDS011;31548;51.420;-0.040;2022-08-07T00:54:37;1.60;;;0.90;;
45836;SDS011;31548;51.420;-0.040;2022-08-07T00:57:06;3.15;;;1.67;;
45836;SDS011;31548;51.420;-0.040;2022-08-07T00:59:38;2.67;;;1.15;;
45836;SDS011;31548;51.420;-0.040;2022-08-07T01:02:06;4.03;;;1.30;;
45836;SDS011;31548;51.420;-0.040;2022-08-07T01:04:53;3.00;;;1.13;;
45836;SDS011;31548;51.420;-0.040;2022-08-07T01:07:24;3.22;;;1.40;;
45836;SDS011;31548;51.420;-0.040;2022-08-07T01:09:55;3.63;;;1.38;;
45836;SDS011;31548;51.420;-0.040;2022-08-07T01:12:39;4.97;;;1.70;;
45836;SDS011;31548;51.420;-0.040;2022-08-07T01:15:23;2.10;;;1.30;;
45836;SDS011;31548;51.420;-0.040;2022-08-07T01:18:11;2.92;;;1.52;;
45836;SDS011;31548;51.420;-0.040;2022-08-07T01:23:27;2.65;;;1.05;;
45836;SDS011;31548;51.420;-0.040;2022-08-07T01:26:10;4.18;;;1.10;;
45836;SDS011;31548;51.420;-0.040;2022-08-07T01:28:47;3.15;;;1.40;;
45836;SDS011;31548;51.420;-0.040;2022-08-07T01:31:21;3.13;;;1.48;;
45836;SDS011;31548;51.420;-0.040;2022-08-07T01:34:13;3.20;;;1.45;;
45836;SDS011;31548;51.420;-0.040;2022-08-07T01:36:41;2.88;;;1.35;;
45836;SDS011;31548;51.420;-0.040;2022-08-07T01:39:15;3.50;;;1.73;;
45836;SDS011;31548;51.420;-0.040;2022-08-07T01:41:54;3.13;;;1.55;;
45836;SDS011;31548;51.420;-0.040;2022-08-07T01:44:42;2.55;;;1.20;;
45836;SDS011;31548;51.420;-0.040;2022-08-07T01:47:14;6.53;;;1.60;;
45836;SDS011;31548;51.420;-0.040;2022-08-07T01:50:02;3.97;;;1.58;;
45836;SDS011;31548;51.420;-0.040;2022-08-07T01:52:31;3.17;;;1.60;;
45836;SDS011;31548;51.420;-0.040;2022-08-07T01:55:00;4.45;;;1.23;;
45836;SDS011;31548;51.420;-0.040;2022-08-07T01:57:35;4.20;;;1.48;;
45836;SDS011;31548;51.420;-0.040;2022-08-07T02:00:26;2.90;;;1.13;;
45836;SDS011;31548;51.420;-0.040;2022-08-07T02:03:00;5.32;;;1.30;;
45836;SDS011;31548;51.420;-0.040;2022-08-07T02:05:51;3.03;;;1.33;;
45836;SDS011;31548;51.420;-0.040;2022-08-07T02:08:26;2.65;;;1.48;;
45836;SDS011;31548;51.420;-0.040;2022-08-07T02:10:55;2.97;;;1.10;;
45836;SDS011;31548;51.420;-0.040;2022-08-07T02:13:28;2.55;;;1.15;;
45836;SDS011;31548;51.420;-0.040;2022-08-07T02:16:17;3.40;;;1.40;;
45836;SDS011;31548;51.420;-0.040;2022-08-07T02:19:00;5.10;;;1.10;;
45836;SDS011;31548;51.420;-0.040;2022-08-07T02:21:49;2.15;;;1.45;;
45836;SDS011;31548;51.420;-0.040;2022-08-07T02:24:23;2.25;;;1.10;;
45836;SDS011;31548;51.420;-0.040;2022-08-07T02:26:55;4.88;;;1.05;;
45836;SDS011;31548;51.420;-0.040;2022-08-07T02:29:30;1.40;;;0.90;;
45836;SDS011;31548;51.420;-0.040;2022-08-07T02:32:02;3.25;;;1.20;;
45836;SDS011;31548;51.420;-0.040;2022-08-07T02:34:31;3.55;;;1.17;;
45836;SDS011;31548;51.420;-0.040;2022-08-07T02:37:02;3.13;;;1.13;;
45836;SDS011;31548;51.420;-0.040;2022-08-07T02:39:35;4.65;;;1.33;;
45836;SDS011;31548;51.420;-0.040;2022-08-07T02:42:28;4.65;;;1.73;;
45836;SDS011;31548;51.420;-0.040;2022-08-07T02:44:59;4.50;;;1.63;;
45836;SDS011;31548;51.420;-0.040;2022-08-07T02:47:50;2.28;;;1.45;;
45836;SDS011;31548;51.420;-0.040;2022-08-07T02:50:18;2.53;;;1.50;;
45836;SDS011;31548;51.420;-0.040;2022-08-07T02:52:58;7.82;;;1.95;;
45836;SDS011;31548;51.420;-0.040;2022-08-07T02:55:37;3.40;;;1.80;;
45836;SDS011;31548;51.420;-0.040;2022-08-07T02:58:29;3.50;;;1.55;;
45836;SDS011;31548;51.420;-0.040;2022-08-07T03:01:01;6.80;;;2.65;;
45836;SDS011;31548;51.420;-0.040;2022-08-07T03:03:31;2.30;;;1.52;;
45836;SDS011;31548;51.420;-0.040;2022-08-07T03:06:20;2.70;;;1.30;;
45836;SDS011;31548;51.420;-0.040;2022-08-07T03:09:03;5.88;;;1.65;;
45836;SDS011;31548;51.420;-0.040;2022-08-07T03:11:37;2.90;;;1.40;;
45836;SDS011;31548;51.420;-0.040;2022-08-07T03:14:28;2.95;;;1.27;;
45836;SDS011;31548;51.420;-0.040;2022-08-07T03:16:56;2.13;;;1.52;;
45836;SDS011;31548;51.420;-0.040;2022-08-07T03:19:24;3.50;;;1.55;;
45836;SDS011;31548;51.420;-0.040;2022-08-07T03:22:03;4.43;;;1.30;;
45836;SDS011;31548;51.420;-0.040;2022-08-07T03:24:32;4.63;;;1.83;;
45836;SDS011;31548;51.420;-0.040;2022-08-07T03:27:03;5.63;;;1.70;;
45836;SDS011;31548;51.420;-0.040;2022-08-07T03:29:45;4.57;;;1.52;;
45836;SDS011;31548;51.420;-0.040;2022-08-07T03:32:42;2.63;;;1.52;;
45836;SDS011;31548;51.420;-0.040;2022-08-07T03:35:23;4.00;;;1.10;;
45836;SDS011;31548;51.420;-0.040;2022-08-07T03:38:04;3.33;;;1.45;;
45836;SDS011;31548;51.420;-0.040;2022-08-07T03:40:40;2.28;;;1.52;;
45836;SDS011;31548;51.420;-0.040;2022-08-07T03:43:12;3.55;;;1.75;;
45836;SDS011;31548;51.420;-0.040;2022-08-07T03:45:46;2.78;;;1.45;;
45836;SDS011;31548;51.420;-0.040;2022-08-07T03:48:20;3.95;;;1.40;;
45836;SDS011;31548;51.420;-0.040;2022-08-07T03:50:47;3.92;;;1.40;;
45836;SDS011;31548;51.420;-0.040;2022-08-07T03:53:25;7.88;;;1.20;;
45836;SDS011;31548;51.420;-0.040;2022-08-07T03:56:16;1.75;;;1.10;;
45836;SDS011;31548;51.420;-0.040;2022-08-07T03:59:02;3.50;;;1.50;;
45836;SDS011;31548;51.420;-0.040;2022-08-07T04:01:41;2.80;;;1.33;;
45836;SDS011;31548;51.420;-0.040;2022-08-07T04:04:16;3.33;;;1.48;;
45836;SDS011;31548;51.420;-0.040;2022-08-07T04:06:48;2.40;;;1.38;;
45836;SDS011;31548;51.420;-0.040;2022-08-07T04:09:19;4.95;;;1.40;;
45836;SDS011;31548;51.420;-0.040;2022-08-07T04:11:53;2.78;;;1.58;;
45836;SDS011;31548;51.420;-0.040;2022-08-07T04:14:43;6.55;;;1.33;;
45836;SDS011;31548;51.420;-0.040;2022-08-07T04:17:16;1.90;;;1.40;;
45836;SDS011;31548;51.420;-0.040;2022-08-07T04:19:50;3.75;;;1.20;;
45836;SDS011;31548;51.420;-0.040;2022-08-07T04:22:23;6.70;;;1.40;;
45836;SDS011;31548;51.420;-0.040;2022-08-07T04:24:58;3.50;;;1.42;;
45836;SDS011;31548;51.420;-0.040;2022-08-07T04:27:29;1.67;;;1.10;;
45836;SDS011;31548;51.420;-0.040;2022-08-07T04:30:11;3.17;;;1.20;;
45836;SDS011;31548;51.420;-0.040;2022-08-07T04:33:05;3.10;;;1.25;;
45836;SDS011;31548;51.420;-0.040;2022-08-07T04:35:45;3.92;;;1.20;;
45836;SDS011;31548;51.420;-0.040;2022-08-07T04:38:21;4.10;;;1.20;;
45836;SDS011;31548;51.420;-0.040;2022-08-07T04:40:51;2.75;;;1.23;;
45836;SDS011;31548;51.420;-0.040;2022-08-07T04:43:48;2.65;;;1.30;;
45836;SDS011;31548;51.420;-0.040;2022-08-07T04:46:41;5.78;;;1.20;;
45836;SDS011;31548;51.420;-0.040;2022-08-07T04:49:40;3.15;;;1.30;;
45836;SDS011;31548;51.420;-0.040;2022-08-07T04:52:40;2.47;;;1.45;;
45836;SDS011;31548;51.420;-0.040;2022-08-07T04:55:21;3.35;;;1.63;;
45836;SDS011;31548;51.420;-0.040;2022-08-07T05:06:39;3.83;;;1.20;;
45836;SDS011;31548;51.420;-0.040;2022-08-07T05:09:29;1.65;;;0.90;;
45836;SDS011;31548;51.420;-0.040;2022-08-07T05:12:15;2.30;;;0.98;;
45836;SDS011;31548;51.420;-0.040;2022-08-07T05:15:01;1.70;;;1.02;;
45836;SDS011;31548;51.420;-0.040;2022-08-07T05:17:57;3.20;;;0.82;;
45836;SDS011;31548;51.420;-0.040;2022-08-07T05:20:38;4.63;;;1.02;;
45836;SDS011;31548;51.420;-0.040;2022-08-07T05:23:10;1.85;;;0.80;;
45836;SDS011;31548;51.420;-0.040;2022-08-07T05:25:44;1.42;;;0.88;;
45836;SDS011;31548;51.420;-0.040;2022-08-07T05:28:34;3.15;;;1.10;;
45836;SDS011;31548;51.420;-0.040;2022-08-07T05:31:09;2.33;;;0.80;;
45836;SDS011;31548;51.420;-0.040;2022-08-07T05:33:42;4.95;;;1.20;;
45836;SDS011;31548;51.420;-0.040;2022-08-07T05:36:27;2.40;;;1.00;;
45836;SDS011;31548;51.420;-0.040;2022-08-07T05:39:03;5.18;;;1.08;;
45836;SDS011;31548;51.420;-0.040;2022-08-07T05:41:56;6.78;;;1.13;;
45836;SDS011;31548;51.420;-0.040;2022-08-07T05:44:32;2.75;;;0.90;;
45836;SDS011;31548;51.420;-0.040;2022-08-07T05:47:01;2.08;;;0.90;;
45836;SDS011;31548;51.420;-0.040;2022-08-07T05:52:18;2.47;;;0.70;;
45836;SDS011;31548;51.420;-0.040;2022-08-07T05:55:00;2.50;;;0.93;;
45836;SDS011;31548;51.420;-0.040;2022-08-07T05:57:36;4.00;;;1.33;;
45836;SDS011;31548;51.420;-0.040;2022-08-07T06:00:09;1.55;;;0.60;;
45836;SDS011;31548;51.420;-0.040;2022-08-07T06:02:49;1.13;;;0.60;;
45836;SDS011;31548;51.420;-0.040;2022-08-07T06:05:19;3.47;;;0.90;;
45836;SDS011;31548;51.420;-0.040;2022-08-07T06:07:57;1.20;;;0.70;;
45836;SDS011;31548;51.420;-0.040;2022-08-07T06:10:47;3.13;;;0.90;;
45836;SDS011;31548;51.420;-0.040;2022-08-07T06:13:21;4.32;;;0.90;;
45836;SDS011;31548;51.420;-0.040;2022-08-07T06:16:09;6.22;;;0.80;;
45836;SDS011;31548;51.420;-0.040;2022-08-07T06:18:41;1.98;;;0.98;;
45836;SDS011;31548;51.420;-0.040;2022-08-07T06:21:17;1.67;;;0.80;;
45836;SDS011;31548;51.420;-0.040;2022-08-07T06:24:05;2.58;;;1.08;;
45836;SDS011;31548;51.420;-0.040;2022-08-07T06:26:53;4.38;;;0.90;;
45836;SDS011;31548;51.420;-0.040;2022-08-07T06:29:25;3.33;;;1.00;;
45836;SDS011;31548;51.420;-0.040;2022-08-07T06:31:55;2.65;;;1.00;;
45836;SDS011;31548;51.420;-0.040;2022-08-07T06:34:23;3.17;;;1.10;;
45836;SDS011;31548;51.420;-0.040;2022-08-07T06:36:57;5.60;;;1.65;;
45836;SDS011;31548;51.420;-0.040;2022-08-07T06:39:31;2.92;;;1.35;;
45836;SDS011;31548;51.420;-0.040;2022-08-07T06:42:19;3.55;;;1.08;;
45836;SDS011;31548;51.420;-0.040;2022-08-07T06:45:24;3.42;;;1.20;;
45836;SDS011;31548;51.420;-0.040;2022-08-07T06:47:55;1.42;;;1.00;;
45836;SDS011;31548;51.420;-0.040;2022-08-07T06:50:45;5.88;;;1.40;;
45836;SDS011;31548;51.420;-0.040;2022-08-07T06:53:16;4.10;;;1.25;;
45836;SDS011;31548;51.420;-0.040;2022-08-07T06:56:09;3.85;;;1.40;;
45836;SDS011;31548;51.420;-0.040;2022-08-07T06:58:44;3.55;;;1.40;;
45836;SDS011;31548;51.420;-0.040;2022-08-07T07:01:36;2.60;;;1.13;;
45836;SDS011;31548;51.420;-0.040;2022-08-07T07:04:16;5.43;;;1.55;;
45836;SDS011;31548;51.420;-0.040;2022-08-07T07:06:59;3.33;;;1.30;;
45836;SDS011;31548;51.420;-0.040;2022-08-07T07:09:42;4.68;;;1.20;;
45836;SDS011;31548;51.420;-0.040;2022-08-07T07:17:54;3.88;;;1.17;;
45836;SDS011;31548;51.420;-0.040;2022-08-07T07:20:33;3.35;;;1.10;;
45836;SDS011;31548;51.420;-0.040;2022-08-07T07:23:05;4.10;;;1.00;;
45836;SDS011;31548;51.420;-0.040;2022-08-07T07:25:56;3.72;;;1.05;;
45836;SDS011;31548;51.420;-0.040;2022-08-07T07:28:50;2.17;;;1.25;;
45836;SDS011;31548;51.420;-0.040;2022-08-07T07:31:48;1.95;;;1.10;;
45836;SDS011;31548;51.420;-0.040;2022-08-07T07:34:22;1.63;;;1.30;;
45836;SDS011;31548;51.420;-0.040;2022-08-07T07:36:58;4.15;;;2.10;;
45836;SDS011;31548;51.420;-0.040;2022-08-07T07:39:49;6.13;;;1.30;;
45836;SDS011;31548;51.420;-0.040;2022-08-07T07:42:22;5.50;;;1.50;;
45836;SDS011;31548;51.420;-0.040;2022-08-07T07:45:02;4.20;;;2.15;;
45836;SDS011;31548;51.420;-0.040;2022-08-07T07:47:31;3.47;;;1.60;;
45836;SDS011;31548;51.420;-0.040;2022-08-07T07:50:19;5.93;;;1.73;;
45836;SDS011;31548;51.420;-0.040;2022-08-07T07:53:04;4.53;;;1.50;;
45836;SDS011;31548;51.420;-0.040;2022-08-07T07:58:24;3.97;;;1.40;;
45836;SDS011;31548;51.420;-0.040;2022-08-07T08:00:55;1.63;;;1.10;;
45836;SDS011;31548;51.420;-0.040;2022-08-07T08:03:24;2.58;;;1.15;;
45836;SDS011;31548;51.420;-0.040;2022-08-07T08:06:14;1.77;;;1.13;;
45836;SDS011;31548;51.420;-0.040;2022-08-07T08:08:43;2.47;;;1.45;;
45836;SDS011;31548;51.420;-0.040;2022-08-07T08:11:13;4.93;;;1.92;;
45836;SDS011;31548;51.420;-0.040;2022-08-07T08:14:01;4.03;;;1.27;;
45836;SDS011;31548;51.420;-0.040;2022-08-07T08:16:31;2.55;;;1.30;;
45836;SDS011;31548;51.420;-0.040;2022-08-07T08:19:17;2.75;;;1.35;;
45836;SDS011;31548;51.420;-0.040;2022-08-07T08:22:10;5.00;;;1.80;;
45836;SDS011;31548;51.420;-0.040;2022-08-07T08:24:58;3.35;;;1.38;;
45836;SDS011;31548;51.420;-0.040;2022-08-07T08:28:08;4.60;;;1.35;;
45836;SDS011;31548;51.420;-0.040;2022-08-07T08:30:53;5.45;;;2.40;;
45836;SDS011;31548;51.420;-0.040;2022-08-07T08:33:26;2.42;;;1.40;;
45836;SDS011;31548;51.420;-0.040;2022-08-07T08:35:58;3.17;;;1.83;;
45836;SDS011;31548;51.420;-0.040;2022-08-07T08:38:31;7.03;;;3.05;;
45836;SDS011;31548;51.420;-0.040;2022-08-07T08:41:10;5.32;;;2.15;;
45836;SDS011;31548;51.420;-0.040;2022-08-07T08:43:52;4.40;;;1.85;;
45836;SDS011;31548;51.420;-0.040;2022-08-07T08:49:41;2.95;;;1.30;;
45836;SDS011;31548;51.420;-0.040;2022-08-07T08:52:32;4.15;;;1.45;;
45836;SDS011;31548;51.420;-0.040;2022-08-07T09:00:59;4.70;;;1.80;;
45836;SDS011;31548;51.420;-0.040;2022-08-07T09:04:13;3.85;;;1.27;;
45836;SDS011;31548;51.420;-0.040;2022-08-07T09:12:26;4.28;;;1.75;;
45836;SDS011;31548;51.420;-0.040;2022-08-07T09:15:04;9.07;;;2.03;;
45836;SDS011;31548;51.420;-0.040;2022-08-07T09:20:53;4.50;;;2.22;;
45836;SDS011;31548;51.420;-0.040;2022-08-07T09:24:25;5.75;;;1.55;;
45836;SDS011;31548;51.420;-0.040;2022-08-07T09:27:32;3.10;;;1.15;;
45836;SDS011;31548;51.420;-0.040;2022-08-07T09:30:25;2.78;;;1.08;;
45836;SDS011;31548;51.420;-0.040;2022-08-07T09:36:28;2.53;;;1.20;;
45836;SDS011;31548;51.420;-0.040;2022-08-07T09:39:15;5.75;;;1.98;;
45836;SDS011;31548;51.420;-0.040;2022-08-07T09:42:10;3.75;;;1.42;;
45836;SDS011;31548;51.420;-0.040;2022-08-07T09:48:12;6.22;;;1.85;;
45836;SDS011;31548;51.420;-0.040;2022-08-07T09:54:39;3.72;;;1.30;;
45836;SDS011;31548;51.420;-0.040;2022-08-07T10:11:48;3.58;;;1.60;;
45836;SDS011;31548;51.420;-0.040;2022-08-07T10:15:00;3.83;;;1.30;;
45836;SDS011;31548;51.420;-0.040;2022-08-07T10:32:55;4.70;;;1.30;;
45836;SDS011;31548;51.420;-0.040;2022-08-07T10:35:32;3.72;;;1.10;;
45836;SDS011;31548;51.420;-0.040;2022-08-07T10:47:17;3.90;;;1.02;;
45836;SDS011;31548;51.420;-0.040;2022-08-07T10:50:22;8.32;;;2.25;;
45836;SDS011;31548;51.420;-0.040;2022-08-07T10:55:57;5.07;;;1.75;;
45836;SDS011;31548;51.420;-0.040;2022-08-07T10:58:38;2.25;;;1.00;;
45836;SDS011;31548;51.420;-0.040;2022-08-07T11:13:02;7.45;;;1.92;;
45836;SDS011;31548;51.420;-0.040;2022-08-07T11:15:56;4.65;;;1.52;;
45836;SDS011;31548;51.420;-0.040;2022-08-07T11:18:33;3.03;;;1.30;;
45836;SDS011;31548;51.420;-0.040;2022-08-07T11:23:58;6.35;;;1.30;;
45836;SDS011;31548;51.420;-0.040;2022-08-07T11:26:45;6.28;;;1.20;;
45836;SDS011;31548;51.420;-0.040;2022-08-07T11:29:39;4.38;;;1.13;;
45836;SDS011;31548;51.420;-0.040;2022-08-07T11:32:37;1.35;;;0.77;;
45836;SDS011;31548;51.420;-0.040;2022-08-07T11:35:19;4.75;;;0.70;;
45836;SDS011;31548;51.420;-0.040;2022-08-07T11:40:40;3.28;;;0.98;;
45836;SDS011;31548;51.420;-0.040;2022-08-07T11:43:20;2.67;;;1.15;;
45836;SDS011;31548;51.420;-0.040;2022-08-07T11:49:26;3.67;;;1.00;;
45836;SDS011;31548;51.420;-0.040;2022-08-07T11:58:48;1.63;;;0.90;;
45836;SDS011;31548;51.420;-0.040;2022-08-07T12:04:33;1.45;;;0.80;;
45836;SDS011;31548;51.420;-0.040;2022-08-07T12:07:29;2.47;;;0.85;;
45836;SDS011;31548;51.420;-0.040;2022-08-07T12:10:07;2.85;;;1.00;;
45836;SDS011;31548;51.420;-0.040;2022-08-07T12:16:02;3.40;;;1.00;;
45836;SDS011;31548;51.420;-0.040;2022-08-07T12:18:47;1.95;;;0.80;;
45836;SDS011;31548;51.420;-0.040;2022-08-07T12:22:22;1.92;;;0.70;;
45836;SDS011;31548;51.420;-0.040;2022-08-07T12:28:30;1.27;;;0.70;;
45836;SDS011;31548;51.420;-0.040;2022-08-07T12:31:05;5.32;;;1.05;;
45836;SDS011;31548;51.420;-0.040;2022-08-07T12:33:47;1.17;;;0.70;;
45836;SDS011;31548;51.420;-0.040;2022-08-07T12:36:27;5.38;;;0.90;;
45836;SDS011;31548;51.420;-0.040;2022-08-07T12:39:05;2.88;;;0.70;;
45836;SDS011;31548;51.420;-0.040;2022-08-07T12:41:53;3.72;;;0.93;;
45836;SDS011;31548;51.420;-0.040;2022-08-07T12:44:21;6.45;;;1.42;;
45836;SDS011;31548;51.420;-0.040;2022-08-07T12:50:11;6.45;;;1.25;;
45836;SDS011;31548;51.420;-0.040;2022-08-07T12:53:22;3.53;;;0.80;;
45836;SDS011;31548;51.420;-0.040;2022-08-07T12:56:30;1.10;;;0.80;;
45836;SDS011;31548;51.420;-0.040;2022-08-07T13:10:27;2.42;;;0.90;;
45836;SDS011;31548;51.420;-0.040;2022-08-07T13:13:26;1.85;;;0.70;;
45836;SDS011;31548;51.420;-0.040;2022-08-07T13:16:20;1.15;;;0.70;;
45836;SDS011;31548;51.420;-0.040;2022-08-07T13:18:58;2.63;;;0.70;;
45836;SDS011;31548;51.420;-0.040;2022-08-07T13:22:20;1.90;;;0.90;;
45836;SDS011;31548;51.420;-0.040;2022-08-07T13:27:35;2.22;;;0.60;;
45836;SDS011;31548;51.420;-0.040;2022-08-07T13:30:28;2.45;;;0.75;;
45836;SDS011;31548;51.420;-0.040;2022-08-07T13:36:50;1.77;;;0.60;;
45836;SDS011;31548;51.420;-0.040;2022-08-07T13:39:34;2.35;;;0.80;;
45836;SDS011;31548;51.420;-0.040;2022-08-07T13:42:29;2.88;;;0.65;;
45836;SDS011;31548;51.420;-0.040;2022-08-07T13:45:05;1.63;;;0.70;;
45836;SDS011;31548;51.420;-0.040;2022-08-07T13:47:54;3.38;;;0.70;;
45836;SDS011;31548;51.420;-0.040;2022-08-07T13:50:34;1.33;;;0.60;;
45836;SDS011;31548;51.420;-0.040;2022-08-07T13:53:31;0.50;;;0.40;;
45836;SDS011;31548;51.420;-0.040;2022-08-07T13:56:22;1.83;;;0.40;;
45836;SDS011;31548;51.420;-0.040;2022-08-07T13:59:08;2.03;;;0.40;;
45836;SDS011;31548;51.420;-0.040;2022-08-07T14:01:43;1.60;;;0.60;;
45836;SDS011;31548;51.420;-0.040;2022-08-07T14:04:31;0.80;;;0.50;;
45836;SDS011;31548;51.420;-0.040;2022-08-07T14:09:44;4.05;;;0.50;;
45836;SDS011;31548;51.420;-0.040;2022-08-07T14:15:41;3.10;;;0.40;;
45836;SDS011;31548;51.420;-0.040;2022-08-07T14:21:12;1.35;;;0.50;;
45836;SDS011;31548;51.420;-0.040;2022-08-07T14:24:05;1.75;;;0.60;;
45836;SDS011;31548;51.420;-0.040;2022-08-07T14:29:18;0.50;;;0.30;;
45836;SDS011;31548;51.420;-0.040;2022-08-07T14:32:09;1.88;;;0.40;;
45836;SDS011;31548;51.420;-0.040;2022-08-07T14:34:39;2.70;;;0.50;;
45836;SDS011;31548;51.420;-0.040;2022-08-07T14:37:12;3.10;;;0.60;;
45836;SDS011;31548;51.420;-0.040;2022-08-07T14:39:43;0.73;;;0.30;;
45836;SDS011;31548;51.420;-0.040;2022-08-07T14:42:32;1.42;;;0.50;;
45836;SDS011;31548;51.420;-0.040;2022-08-07T14:45:22;2.05;;;0.43;;
45836;SDS011;31548;51.420;-0.040;2022-08-07T14:48:19;1.05;;;0.40;;
45836;SDS011;31548;51.420;-0.040;2022-08-07T14:50:53;1.77;;;0.40;;
45836;SDS011;31548;51.420;-0.040;2022-08-07T14:53:28;1.38;;;0.30;;
45836;SDS011;31548;51.420;-0.040;2022-08-07T14:56:19;1.38;;;0.30;;
45836;SDS011;31548;51.420;-0.040;2022-08-07T14:58:56;2.90;;;1.25;;
45836;SDS011;31548;51.420;-0.040;2022-08-07T15:01:30;1.80;;;0.70;;
45836;SDS011;31548;51.420;-0.040;2022-08-07T15:04:08;2.78;;;0.60;;
45836;SDS011;31548;51.420;-0.040;2022-08-07T15:06:38;1.25;;;0.50;;
45836;SDS011;31548;51.420;-0.040;2022-08-07T15:09:14;1.48;;;0.60;;
45836;SDS011;31548;51.420;-0.040;2022-08-07T15:12:08;0.55;;;0.22;;
45836;SDS011;31548;51.420;-0.040;2022-08-07T15:15:03;0.60;;;0.30;;
45836;SDS011;31548;51.420;-0.040;2022-08-07T15:17:35;0.75;;;0.32;;
45836;SDS011;31548;51.420;-0.040;2022-08-07T15:20:22;1.27;;;0.32;;
45836;SDS011;31548;51.420;-0.040;2022-08-07T15:23:14;2.10;;;0.40;;
45836;SDS011;31548;51.420;-0.040;2022-08-07T15:26:07;2.80;;;0.50;;
45836;SDS011;31548;51.420;-0.040;2022-08-07T15:28:47;1.35;;;0.45;;
45836;SDS011;31548;51.420;-0.040;2022-08-07T15:31:41;1.45;;;0.30;;
45836;SDS011;31548;51.420;-0.040;2022-08-07T15:34:33;3.53;;;0.30;;
45836;SDS011;31548;51.420;-0.040;2022-08-07T15:37:16;3.03;;;0.40;;
45836;SDS011;31548;51.420;-0.040;2022-08-07T15:39:54;0.75;;;0.38;;
45836;SDS011;31548;51.420;-0.040;2022-08-07T15:47:49;1.00;;;0.20;;
45836;SDS011;31548;51.420;-0.040;2022-08-07T15:50:28;0.38;;;0.30;;
45836;SDS011;31548;51.420;-0.040;2022-08-07T15:56:16;2.05;;;0.35;;
45836;SDS011;31548;51.420;-0.040;2022-08-07T15:58:51;0.77;;;0.30;;
45836;SDS011;31548;51.420;-0.040;2022-08-07T16:04:08;1.00;;;0.30;;
45836;SDS011;31548;51.420;-0.040;2022-08-07T16:06:50;0.60;;;0.30;;
45836;SDS011;31548;51.420;-0.040;2022-08-07T16:09:40;0.40;;;0.30;;
45836;SDS011;31548;51.420;-0.040;2022-08-07T16:12:24;0.82;;;0.30;;
45836;SDS011;31548;51.420;-0.040;2022-08-07T16:21:14;0.55;;;0.20;;
45836;SDS011;31548;51.420;-0.040;2022-08-07T16:24:30;0.68;;;0.20;;
45836;SDS011;31548;51.420;-0.040;2022-08-07T16:35:46;0.30;;;0.30;;
45836;SDS011;31548;51.420;-0.040;2022-08-07T16:39:31;0.43;;;0.20;;
45836;SDS011;31548;51.420;-0.040;2022-08-07T16:41:57;0.73;;;0.30;;
45836;SDS011;31548;51.420;-0.040;2022-08-07T16:47:45;0.40;;;0.20;;
45836;SDS011;31548;51.420;-0.040;2022-08-07T16:53:30;0.20;;;0.20;;
45836;SDS011;31548;51.420;-0.040;2022-08-07T16:56:59;0.60;;;0.20;;
45836;SDS011;31548;51.420;-0.040;2022-08-07T17:08:43;0.47;;;0.20;;
45836;SDS011;31548;51.420;-0.040;2022-08-07T17:11:45;0.77;;;0.20;;
45836;SDS011;31548;51.420;-0.040;2022-08-07T17:14:47;0.73;;;0.20;;
45836;SDS011;31548;51.420;-0.040;2022-08-07T17:29:06;0.25;;;0.20;;
45836;SDS011;31548;51.420;-0.040;2022-08-07T17:32:19;1.45;;;0.20;;
45836;SDS011;31548;51.420;-0.040;2022-08-07T17:35:04;2.55;;;0.22;;
45836;SDS011;31548;51.420;-0.040;2022-08-07T17:38:03;2.75;;;0.25;;
45836;SDS011;31548;51.420;-0.040;2022-08-07T17:41:11;0.90;;;0.22;;
45836;SDS011;31548;51.420;-0.040;2022-08-07T17:46:58;0.80;;;0.25;;
45836;SDS011;31548;51.420;-0.040;2022-08-07T17:49:47;0.40;;;0.20;;
45836;SDS011;31548;51.420;-0.040;2022-08-07T17:52:23;1.63;;;0.20;;
45836;SDS011;31548;51.420;-0.040;2022-08-07T17:58:07;0.20;;;0.10;;
45836;SDS011;31548;51.420;-0.040;2022-08-07T18:00:56;0.77;;;0.30;;
45836;SDS011;31548;51.420;-0.040;2022-08-07T18:03:50;0.43;;;0.20;;
45836;SDS011;31548;51.420;-0.040;2022-08-07T18:06:39;0.65;;;0.20;;
45836;SDS011;31548;51.420;-0.040;2022-08-07T18:09:33;1.98;;;0.20;;
45836;SDS011;31548;51.420;-0.040;2022-08-07T18:12:30;0.50;;;0.30;;
45836;SDS011;31548;51.420;-0.040;2022-08-07T18:17:50;0.68;;;0.20;;
45836;SDS011;31548;51.420;-0.040;2022-08-07T18:20:47;2.22;;;0.38;;
45836;SDS011;31548;51.420;-0.040;2022-08-07T18:23:51;0.30;;;0.20;;
45836;SDS011;31548;51.420;-0.040;2022-08-07T18:29:25;0.52;;;0.20;;
45836;SDS011;31548;51.420;-0.040;2022-08-07T18:38:25;0.68;;;0.20;;
45836;SDS011;31548;51.420;-0.040;2022-08-07T18:53:12;2.75;;;0.38;;
45836;SDS011;31548;51.420;-0.040;2022-08-07T19:04:15;1.70;;;0.38;;
45836;SDS011;31548;51.420;-0.040;2022-08-07T19:07:15;0.98;;;0.30;;
45836;SDS011;31548;51.420;-0.040;2022-08-07T19:10:03;2.08;;;0.30;;
45836;SDS011;31548;51.420;-0.040;2022-08-07T19:12:52;1.83;;;0.32;;
45836;SDS011;31548;51.420;-0.040;2022-08-07T19:22:08;0.20;;;0.20;;
45836;SDS011;31548;51.420;-0.040;2022-08-07T19:24:57;0.20;;;0.20;;
45836;SDS011;31548;51.420;-0.040;2022-08-07T19:27:33;0.55;;;0.45;;
45836;SDS011;31548;51.420;-0.040;2022-08-07T19:30:22;0.40;;;0.30;;
45836;SDS011;31548;51.420;-0.040;2022-08-07T19:33:16;0.40;;;0.33;;
45836;SDS011;31548;51.420;-0.040;2022-08-07T19:35:59;1.52;;;0.22;;
45836;SDS011;31548;51.420;-0.040;2022-08-07T19:38:28;2.30;;;0.20;;
45836;SDS011;31548;51.420;-0.040;2022-08-07T19:40:59;0.65;;;0.20;;
45836;SDS011;31548;51.420;-0.040;2022-08-07T19:43:28;0.20;;;0.20;;
45836;SDS011;31548;51.420;-0.040;2022-08-07T19:46:23;1.35;;;0.25;;
45836;SDS011;31548;51.420;-0.040;2022-08-07T19:48:58;1.63;;;0.40;;
45836;SDS011;31548;51.420;-0.040;2022-08-07T19:51:31;0.25;;;0.22;;
45836;SDS011;31548;51.420;-0.040;2022-08-07T19:54:20;3.00;;;0.30;;
45836;SDS011;31548;51.420;-0.040;2022-08-07T19:57:13;1.90;;;0.40;;
45836;SDS011;31548;51.420;-0.040;2022-08-07T20:00:05;1.80;;;0.40;;
45836;SDS011;31548;51.420;-0.040;2022-08-07T20:02:59;0.73;;;0.30;;
45836;SDS011;31548;51.420;-0.040;2022-08-07T20:05:57;1.17;;;0.32;;
45836;SDS011;31548;51.420;-0.040;2022-08-07T20:08:29;0.20;;;0.20;;
45836;SDS011;31548;51.420;-0.040;2022-08-07T20:11:03;0.75;;;0.40;;
45836;SDS011;31548;51.420;-0.040;2022-08-07T20:13:44;1.83;;;0.30;;
45836;SDS011;31548;51.420;-0.040;2022-08-07T20:16:19;1.33;;;0.40;;
45836;SDS011;31548;51.420;-0.040;2022-08-07T20:19:05;0.38;;;0.30;;
45836;SDS011;31548;51.420;-0.040;2022-08-07T20:24:20;1.65;;;0.30;;
45836;SDS011;31548;51.420;-0.040;2022-08-07T20:26:57;0.73;;;0.30;;